Time;durP1;ratioP1;P1;durP2;ratioP2;P2;SDS_P1;SDS_P2;PMS_P1;PMS_P2;Temp;Humidity;BMP_temperature;BMP_pressure;BME280_temperature;BME280_humidity;BME280_pressure;Samples;Min_cycle;Max_cycle;Signal;HPM_P1;HPM_P2
2022/04/02 00:01:56;;;;;;;11.87;10.67;;;;;;;1.91;100.00;97893.22;4886132;29;20243;-79
2022/04/02 00:04:23;;;;;;;12.40;11.10;;;;;;;1.90;100.00;97909.28;4882376;29;20267;-79
2022/04/02 00:06:50;;;;;;;12.50;11.20;;;;;;;1.93;100.00;97900.94;4882597;29;20231;-80
2022/04/02 00:09:18;;;;;;;12.60;11.30;;;;;;;2.00;100.00;97896.47;4879019;29;20235;-80
2022/04/02 00:11:45;;;;;;;12.07;10.87;;;;;;;2.11;100.00;97891.34;4882283;29;20231;-79
2022/04/02 00:14:13;;;;;;;12.23;11.03;;;;;;;2.15;100.00;97886.44;4888707;29;20238;-79
2022/04/02 00:16:40;;;;;;;12.20;10.90;;;;;;;2.11;100.00;97886.06;4877342;29;20618;-78
2022/04/02 00:19:07;;;;;;;11.33;10.20;;;;;;;2.06;100.00;97877.94;4875317;29;20699;-79
2022/04/02 00:21:34;;;;;;;12.10;10.80;;;;;;;2.08;100.00;97875.91;4882514;29;20235;-79
2022/04/02 00:24:01;;;;;;;11.50;10.30;;;;;;;2.11;100.00;97880.75;4878752;29;20239;-78
2022/04/02 00:26:28;;;;;;;11.53;10.23;;;;;;;2.05;100.00;97881.59;4887616;29;20239;-79
2022/04/02 00:28:55;;;;;;;11.17;10.07;;;;;;;2.03;100.00;97890.75;4885933;29;20259;-79
2022/04/02 00:31:22;;;;;;;11.37;10.13;;;;;;;2.04;100.00;97884.47;4890073;29;20235;-79
2022/04/02 00:33:49;;;;;;;10.73;9.63;;;;;;;2.01;100.00;97879.56;4900242;29;20236;-80
2022/04/02 00:36:18;;;;;;;10.47;9.40;;;;;;;2.09;100.00;97874.91;4894054;29;20258;-79
2022/04/02 00:38:45;;;;;;;10.37;9.37;;;;;;;2.05;100.00;97873.66;4887905;29;20327;-79
2022/04/02 00:41:13;;;;;;;10.07;9.17;;;;;;;2.14;100.00;97871.63;4894859;29;20231;-79
2022/04/02 00:43:42;;;;;;;10.40;9.30;;;;;;;2.11;100.00;97859.63;4895552;29;20243;-80
2022/04/02 00:46:12;;;;;;;10.63;9.53;;;;;;;2.04;100.00;97861.50;4880970;29;20690;-78
2022/04/02 00:48:40;;;;;;;9.93;8.93;;;;;;;2.07;100.00;97870.81;4874561;29;20231;-79
2022/04/02 00:51:08;;;;;;;10.00;9.00;;;;;;;2.15;100.00;97879.31;4879886;29;20239;-79
2022/04/02 00:53:37;;;;;;;10.50;9.40;;;;;;;2.08;100.00;97872.44;4876532;29;20262;-79
2022/04/02 00:56:05;;;;;;;9.63;8.73;;;;;;;2.13;100.00;97870.00;4879886;29;20608;-79
2022/04/02 00:58:32;;;;;;;9.83;8.83;;;;;;;2.11;100.00;97861.47;4891306;29;20790;-79
2022/04/02 01:00:59;;;;;;;9.80;8.80;;;;;;;2.12;100.00;97866.53;4877386;29;20239;-79
2022/04/02 01:03:34;;;;;;;11.83;9.83;;;;;;;2.11;100.00;97858.81;4875725;29;20239;-78
2022/04/02 01:06:02;;;;;;;10.70;9.60;;;;;;;2.04;100.00;97871.25;4876543;29;20648;-78
2022/04/02 01:08:33;;;;;;;11.07;9.80;;;;;;;1.95;100.00;97869.84;4874991;29;20314;-78
2022/04/02 01:11:00;;;;;;;12.00;10.07;;;;;;;1.87;100.00;97865.59;4880707;29;20242;-79
2022/04/02 01:13:31;;;;;;;12.53;11.23;;;;;;;1.89;100.00;97863.56;4879790;29;20631;-79
2022/04/02 01:16:01;;;;;;;13.27;11.80;;;;;;;1.76;100.00;97859.13;4879844;29;20275;-78
2022/04/02 01:18:29;;;;;;;13.07;11.67;;;;;;;1.78;100.00;97874.75;4880019;29;20247;-79
2022/04/02 01:20:58;;;;;;;12.83;11.47;;;;;;;1.76;100.00;97868.88;4883800;29;20247;-79
2022/04/02 01:23:32;;;;;;;13.10;11.80;;;;;;;1.76;100.00;97885.53;4882325;29;20258;-79
2022/04/02 01:26:06;;;;;;;12.93;11.57;;;;;;;1.81;100.00;97879.63;4881233;29;20330;-79
2022/04/02 01:28:38;;;;;;;13.83;11.60;;;;;;;1.82;100.00;97883.88;4875773;29;20246;-79
2022/04/02 01:31:10;;;;;;;13.27;11.87;;;;;;;1.87;100.00;97876.16;4879639;29;20263;-79
2022/04/02 01:33:38;;;;;;;14.13;12.00;;;;;;;1.87;100.00;97883.28;4880954;29;20235;-79
2022/04/02 01:36:07;;;;;;;12.77;10.80;;;;;;;1.90;100.00;97872.31;4883052;29;20238;-78
2022/04/02 01:38:49;;;;;;;13.13;11.80;;;;;;;1.95;100.00;97872.50;4875686;29;20251;-80
2022/04/02 01:41:17;;;;;;;15.23;12.53;;;;;;;1.77;100.00;97876.56;4883446;29;20228;-79
2022/04/02 01:43:44;;;;;;;13.77;12.33;;;;;;;1.87;100.00;97876.16;4877078;29;20248;-79
2022/04/02 01:46:12;;;;;;;15.33;12.73;;;;;;;1.90;100.00;97874.94;4882543;29;20231;-79
2022/04/02 01:48:39;;;;;;;15.57;12.60;;;;;;;1.89;100.00;97870.66;4879520;29;20250;-79
2022/04/02 01:51:08;;;;;;;14.17;12.53;;;;;;;1.88;100.00;97876.97;4879277;29;20247;-79
2022/04/02 01:53:36;;;;;;;15.00;13.17;;;;;;;1.81;100.00;97879.63;4879171;29;20240;-79
2022/04/02 01:56:09;;;;;;;15.80;12.87;;;;;;;1.90;100.00;97877.59;4886070;29;20687;-79
2022/04/02 01:58:44;;;;;;;16.00;13.40;;;;;;;1.97;100.00;97881.81;4878940;29;20231;-78
2022/04/02 02:01:16;;;;;;;13.77;12.33;;;;;;;1.93;100.00;97877.97;4878943;29;20242;-79
2022/04/02 02:03:44;;;;;;;14.80;12.83;;;;;;;1.87;100.00;97872.72;4875182;29;20239;-79
2022/04/02 02:06:11;;;;;;;14.47;13.00;;;;;;;1.91;100.00;97877.38;4879390;29;20232;-79
2022/04/02 02:08:43;;;;;;;14.83;13.23;;;;;;;1.78;100.00;97890.59;4878826;29;20239;-78
2022/04/02 02:11:40;;;;;;;15.43;13.13;;;;;;;1.81;100.00;97882.28;4870960;29;20240;-79
2022/04/02 02:14:20;;;;;;;15.67;13.67;;;;;;;1.83;100.00;97880.22;4883435;29;20243;-79
2022/04/02 02:16:57;;;;;;;15.20;13.60;;;;;;;1.77;100.00;97883.72;4878967;29;20318;-78
2022/04/02 02:19:24;;;;;;;15.43;13.37;;;;;;;1.83;100.00;97879.41;4878456;29;20238;-79
2022/04/02 02:21:51;;;;;;;15.10;12.97;;;;;;;1.98;100.00;97880.81;4890635;29;20326;-79
2022/04/02 02:24:19;;;;;;;16.13;13.47;;;;;;;1.79;100.00;97879.03;4870614;29;20239;-79
2022/04/02 02:26:47;;;;;;;17.00;13.17;;;;;;;1.99;100.00;97877.16;4875748;29;20287;-79
2022/04/02 02:29:28;;;;;;;16.20;13.30;;;;;;;1.83;100.00;97882.06;4903724;29;20269;-79
2022/04/02 02:31:56;;;;;;;15.73;13.00;;;;;;;1.88;100.00;97874.31;4878438;29;20239;-79
2022/04/02 02:37:09;;;;;;;14.80;13.27;;;;;;;1.94;100.00;97882.25;4878820;29;20235;-78
2022/04/02 02:39:42;;;;;;;15.47;12.57;;;;;;;1.85;100.00;97882.66;4878605;29;20588;-78
2022/04/02 02:42:16;;;;;;;15.50;13.60;;;;;;;1.91;100.00;97876.56;4881508;29;20606;-79
2022/04/02 02:44:50;;;;;;;13.67;11.73;;;;;;;1.89;100.00;97882.06;4864393;29;20296;-78
2022/04/02 02:47:20;;;;;;;14.27;12.23;;;;;;;1.90;100.00;97880.22;4834022;29;20245;-78
2022/04/02 02:49:49;;;;;;;16.50;13.40;;;;;;;1.83;100.00;97890.78;4839966;29;20579;-77
2022/04/02 02:52:21;;;;;;;16.30;13.10;;;;;;;1.89;100.00;97892.63;4840288;29;20708;-78
2022/04/02 02:54:51;;;;;;;14.67;11.90;;;;;;;1.90;100.00;97894.25;4838189;29;20766;-78
2022/04/02 02:57:18;;;;;;;14.27;12.63;;;;;;;1.85;100.00;97903.78;4837536;29;20244;-78
2022/04/02 02:59:46;;;;;;;16.70;12.83;;;;;;;1.78;100.00;97906.44;4849421;29;20240;-78
2022/04/02 03:02:15;;;;;;;14.37;12.37;;;;;;;1.93;100.00;97899.09;4855350;29;20297;-79
2022/04/02 03:04:47;;;;;;;13.63;12.23;;;;;;;1.87;100.00;97907.06;4839018;29;20702;-78
2022/04/02 03:07:21;;;;;;;14.67;12.87;;;;;;;1.93;100.00;97909.66;4837589;29;20618;-77
2022/04/02 03:09:48;;;;;;;14.80;12.30;;;;;;;1.83;100.00;97908.47;4841550;29;20255;-78
2022/04/02 03:12:17;;;;;;;15.10;12.23;;;;;;;1.87;100.00;97899.13;4852522;29;20235;-78
2022/04/02 03:14:43;;;;;;;13.73;12.30;;;;;;;1.82;100.00;97917.41;4845376;29;20249;-79
2022/04/02 03:17:10;;;;;;;13.40;11.43;;;;;;;1.98;100.00;97907.22;4837413;29;20241;-79
2022/04/02 03:19:39;;;;;;;13.70;12.10;;;;;;;1.92;100.00;97913.31;4838712;29;20233;-78
2022/04/02 03:22:06;;;;;;;14.13;11.37;;;;;;;2.08;100.00;97901.50;4834800;29;20318;-78
2022/04/02 03:24:32;;;;;;;14.10;12.60;;;;;;;1.94;100.00;97902.56;4842974;29;20248;-78
2022/04/02 03:27:04;;;;;;;12.77;11.47;;;;;;;1.95;100.00;97910.28;4844532;29;20702;-78
2022/04/02 03:29:37;;;;;;;14.33;12.67;;;;;;;1.93;100.00;97911.50;4839365;29;20658;-78
2022/04/02 03:32:10;;;;;;;14.80;12.23;;;;;;;1.90;100.00;97911.91;4838343;29;20241;-79
2022/04/02 03:34:37;;;;;;;12.90;11.60;;;;;;;1.89;100.00;97908.47;4844229;29;20248;-78
2022/04/02 03:37:05;;;;;;;15.50;12.00;;;;;;;1.93;100.00;97916.78;4838466;29;20237;-78
2022/04/02 03:39:38;;;;;;;16.30;12.00;;;;;;;2.07;100.00;97908.63;4843562;29;20244;-78
2022/04/02 03:42:06;;;;;;;13.10;11.17;;;;;;;2.04;100.00;97911.69;4856735;29;20781;-78
2022/04/02 03:44:33;;;;;;;12.53;10.73;;;;;;;2.15;100.00;97904.94;4878476;29;20270;-78
2022/04/02 03:47:10;;;;;;;15.30;11.17;;;;;;;2.07;100.00;97911.25;4874014;29;20243;-78
2022/04/02 03:49:51;;;;;;;14.03;10.93;;;;;;;2.01;100.00;97912.09;4874565;29;20307;-78
2022/04/02 03:52:32;;;;;;;12.30;10.27;;;;;;;2.07;100.00;97915.72;4880623;29;20239;-78
2022/04/02 03:55:08;;;;;;;13.90;11.03;;;;;;;2.03;100.00;97917.16;4875565;29;20807;-78
2022/04/02 03:57:37;;;;;;;11.57;10.10;;;;;;;2.11;100.00;97919.56;4876913;29;20262;-78
2022/04/02 04:00:08;;;;;;;13.53;11.40;;;;;;;1.99;100.00;97916.78;4876645;29;20242;-78
2022/04/02 04:02:46;;;;;;;11.60;10.40;;;;;;;2.02;100.00;97916.34;4862721;29;20474;-78
2022/04/02 04:05:23;;;;;;;12.80;10.80;;;;;;;2.02;100.00;97912.91;4878154;29;20727;-78
2022/04/02 04:07:52;;;;;;;12.17;9.93;;;;;;;2.05;100.00;97918.56;4881671;29;20283;-78
2022/04/02 04:10:21;;;;;;;15.47;10.80;;;;;;;2.05;100.00;97925.72;4876540;29;20676;-78
2022/04/02 04:12:49;;;;;;;11.47;10.27;;;;;;;2.04;100.00;97924.91;4876886;29;20236;-78
2022/04/02 04:15:18;;;;;;;12.73;10.67;;;;;;;1.96;100.00;97924.31;4880630;29;20227;-79
2022/04/02 04:17:47;;;;;;;12.23;10.87;;;;;;;1.97;100.00;97929.38;4874742;29;20335;-78
2022/04/02 04:20:15;;;;;;;11.83;10.23;;;;;;;1.98;100.00;97927.53;4877037;29;20747;-78
2022/04/02 04:22:42;;;;;;;12.13;10.27;;;;;;;1.94;100.00;97936.91;4876714;29;20241;-78
2022/04/02 04:25:12;;;;;;;15.00;11.00;;;;;;;2.07;100.00;97932.41;4880632;29;20246;-78
2022/04/02 04:27:43;;;;;;;13.30;10.30;;;;;;;2.06;100.00;97940.50;4878980;29;20660;-78
2022/04/02 04:30:13;;;;;;;10.93;9.73;;;;;;;2.01;100.00;97950.88;4883140;29;20231;-78
2022/04/02 04:32:40;;;;;;;11.50;10.10;;;;;;;1.97;100.00;97941.75;4872802;29;20239;-79
2022/04/02 04:35:08;;;;;;;12.07;10.07;;;;;;;2.09;100.00;97940.13;4882102;29;20688;-78
2022/04/02 04:37:35;;;;;;;14.57;10.13;;;;;;;2.10;100.00;97937.25;4881801;29;20239;-78
2022/04/02 04:40:08;;;;;;;13.33;10.07;;;;;;;2.09;100.00;97940.13;4876252;29;20605;-78
2022/04/02 04:42:38;;;;;;;12.20;10.63;;;;;;;1.99;100.00;97939.72;4872960;29;20248;-78
2022/04/02 04:45:07;;;;;;;12.97;10.53;;;;;;;2.07;100.00;97950.88;4884215;29;20227;-78
2022/04/02 04:47:35;;;;;;;12.50;9.37;;;;;;;2.04;100.00;97945.22;4878859;29;20648;-77
2022/04/02 04:50:03;;;;;;;11.60;9.50;;;;;;;2.15;100.00;97947.19;4877422;29;20263;-78
2022/04/02 04:52:33;;;;;;;14.63;10.33;;;;;;;2.07;100.00;97939.50;4879650;29;20237;-78
2022/04/02 04:55:04;;;;;;;11.50;9.90;;;;;;;2.20;100.00;97934.19;4877635;29;20239;-78
2022/04/02 04:57:32;;;;;;;11.57;9.97;;;;;;;2.17;100.00;97938.06;4880083;29;20593;-78
2022/04/02 05:00:07;;;;;;;11.53;10.20;;;;;;;2.24;100.00;97935.38;4883380;29;20231;-78
2022/04/02 05:02:35;;;;;;;12.13;9.90;;;;;;;2.22;100.00;97932.16;4879865;29;20231;-78
2022/04/02 05:05:05;;;;;;;15.80;9.73;;;;;;;2.38;100.00;97946.75;4880087;29;20250;-78
2022/04/02 05:07:52;;;;;;;10.60;9.53;;;;;;;2.34;100.00;97948.16;4880844;29;20326;-78
2022/04/02 05:10:21;;;;;;;15.70;9.77;;;;;;;2.33;100.00;97947.38;4879251;29;20295;-78
2022/04/02 05:12:48;;;;;;;17.23;9.70;;;;;;;2.45;100.00;97947.53;4877199;29;20330;-78
2022/04/02 05:15:15;;;;;;;13.10;10.13;;;;;;;2.40;100.00;97957.94;4879862;29;20237;-78
2022/04/02 05:17:45;;;;;;;13.90;10.03;;;;;;;2.44;100.00;97964.41;4875577;29;20326;-78
2022/04/02 05:20:14;;;;;;;11.10;9.90;;;;;;;2.51;100.00;97967.88;4883189;29;20234;-78
2022/04/02 05:22:44;;;;;;;12.37;10.30;;;;;;;2.51;100.00;97968.69;4879335;29;20241;-78
2022/04/02 05:25:11;;;;;;;13.23;9.40;;;;;;;2.57;100.00;97962.53;4866680;29;20720;-78
2022/04/02 05:27:41;;;;;;;13.03;9.93;;;;;;;2.78;100.00;97958.81;4864267;29;20239;-78
2022/04/02 05:30:09;;;;;;;11.70;9.30;;;;;;;2.78;100.00;97961.44;4880555;29;20576;-78
2022/04/02 05:32:35;;;;;;;12.33;9.93;;;;;;;2.74;100.00;97959.44;4879578;29;20243;-78
2022/04/02 05:35:03;;;;;;;13.77;10.63;;;;;;;2.80;100.00;97969.97;4879036;29;20239;-78
2022/04/02 05:37:29;;;;;;;13.60;10.63;;;;;;;2.79;100.00;97968.38;4887231;29;20238;-78
2022/04/02 05:39:56;;;;;;;16.33;10.37;;;;;;;2.86;100.00;97965.69;4861012;29;20236;-79
2022/04/02 05:42:23;;;;;;;12.97;9.73;;;;;;;2.95;100.00;97969.69;4882059;29;20731;-79
2022/04/02 05:44:50;;;;;;;12.73;10.23;;;;;;;2.87;100.00;97969.94;4878555;29;20348;-78
2022/04/02 05:47:17;;;;;;;14.37;10.33;;;;;;;2.98;100.00;97969.28;4881363;29;20250;-78
2022/04/02 05:49:47;;;;;;;12.53;9.50;;;;;;;3.01;100.00;97972.31;4882001;29;20235;-78
2022/04/02 05:52:14;;;;;;;12.17;9.27;;;;;;;3.21;100.00;97969.56;4879969;29;20235;-79
2022/04/02 05:54:42;;;;;;;10.13;8.33;;;;;;;3.28;100.00;97969.53;4883561;29;20716;-78
2022/04/02 05:57:09;;;;;;;15.27;9.53;;;;;;;3.13;100.00;97967.16;4878823;29;20247;-79
2022/04/02 05:59:35;;;;;;;12.40;9.00;;;;;;;3.19;100.00;97968.97;4879197;29;20235;-78
2022/04/02 06:02:04;;;;;;;13.90;9.60;;;;;;;3.06;100.00;97974.34;4879866;29;20668;-77
2022/04/02 06:04:31;;;;;;;10.43;9.23;;;;;;;3.25;100.00;97977.91;4879276;29;20231;-80
2022/04/02 06:06:58;;;;;;;10.97;9.27;;;;;;;3.21;100.00;97974.88;4880275;29;20322;-78
2022/04/02 06:09:25;;;;;;;12.40;9.33;;;;;;;3.33;100.00;97991.69;4883802;29;20241;-78
2022/04/02 06:11:51;;;;;;;13.40;10.17;;;;;;;3.31;100.00;97988.44;4880030;29;20658;-78
2022/04/02 06:14:18;;;;;;;11.40;9.43;;;;;;;3.45;100.00;97997.91;4875714;29;20239;-78
2022/04/02 06:16:45;;;;;;;10.67;9.03;;;;;;;3.49;100.00;98003.59;4879959;29;20243;-78
2022/04/02 06:19:11;;;;;;;11.77;9.17;;;;;;;3.53;100.00;97994.22;4887703;29;20253;-78
2022/04/02 06:21:38;;;;;;;14.87;9.50;;;;;;;3.44;100.00;97995.50;4883724;29;20612;-79
2022/04/02 06:24:06;;;;;;;12.23;9.07;;;;;;;3.43;100.00;97993.88;4890912;29;20227;-79
2022/04/02 06:26:33;;;;;;;16.70;11.37;;;;;;;3.60;100.00;98007.38;4883727;29;20279;-77
2022/04/02 06:29:00;;;;;;;11.57;8.93;;;;;;;3.44;100.00;97998.97;4883323;29;20234;-78
2022/04/02 06:31:27;;;;;;;12.43;10.50;;;;;;;3.34;100.00;98000.44;4876096;29;20366;-78
2022/04/02 06:33:53;;;;;;;13.40;10.10;;;;;;;3.43;100.00;97999.97;4882233;29;20235;-78
2022/04/02 06:36:21;;;;;;;11.80;9.77;;;;;;;3.45;100.00;98000.56;4882049;29;20597;-78
2022/04/02 06:38:49;;;;;;;10.37;8.70;;;;;;;3.62;100.00;98000.88;4878310;29;20256;-78
2022/04/02 06:41:15;;;;;;;13.23;10.93;;;;;;;3.48;100.00;98000.16;4882472;29;20231;-78
2022/04/02 06:43:42;;;;;;;12.43;10.10;;;;;;;3.64;100.00;97998.81;4879323;29;20236;-78
2022/04/02 06:46:15;;;;;;;15.10;9.63;;;;;;;3.51;100.00;98001.53;4880612;29;20283;-79
2022/04/02 06:48:42;;;;;;;13.27;8.77;;;;;;;3.63;100.00;97999.84;4875912;29;20244;-78
2022/04/02 06:51:09;;;;;;;12.90;8.80;;;;;;;3.67;100.00;98016.13;4879443;29;20599;-79
2022/04/02 06:53:36;;;;;;;11.90;8.77;;;;;;;3.66;100.00;98007.34;4876125;29;20229;-78
2022/04/02 06:56:02;;;;;;;11.80;8.63;;;;;;;3.83;100.00;98013.75;4883164;29;20318;-77
2022/04/02 06:58:34;;;;;;;18.90;12.70;;;;;;;3.81;100.00;98013.16;4879353;29;20235;-78
2022/04/02 07:01:01;;;;;;;37.83;29.97;;;;;;;3.92;100.00;98006.31;4874985;29;20236;-78
2022/04/02 07:03:28;;;;;;;13.83;10.13;;;;;;;4.16;100.00;98013.47;4879948;29;20731;-79
2022/04/02 07:05:55;;;;;;;10.93;9.07;;;;;;;4.21;100.00;98013.63;4877926;29;20319;-79
2022/04/02 07:08:21;;;;;;;11.40;9.00;;;;;;;4.29;100.00;98026.59;4878473;29;20705;-79
2022/04/02 07:10:48;;;;;;;12.50;9.53;;;;;;;4.03;100.00;98023.38;4879018;29;20243;-78
2022/04/02 07:13:15;;;;;;;14.47;9.33;;;;;;;4.33;100.00;98024.34;4877752;29;20613;-78
2022/04/02 07:15:43;;;;;;;15.77;8.87;;;;;;;4.47;100.00;98031.13;4878834;29;20265;-78
2022/04/02 07:18:10;;;;;;;12.77;9.13;;;;;;;4.48;100.00;98019.47;4878060;29;20235;-79
2022/04/02 07:20:39;;;;;;;10.77;9.20;;;;;;;4.55;100.00;98024.72;4874724;29;20727;-78
2022/04/02 07:23:09;;;;;;;10.10;9.00;;;;;;;5.03;100.00;98022.97;4883111;29;20231;-78
2022/04/02 07:25:38;;;;;;;12.73;8.70;;;;;;;4.96;100.00;98022.22;4875009;29;20238;-78
2022/04/02 07:28:06;;;;;;;12.37;8.90;;;;;;;4.99;100.00;98018.31;4880752;29;20266;-79
2022/04/02 07:30:35;;;;;;;11.03;8.53;;;;;;;5.15;98.62;98023.00;4872124;29;20254;-79
2022/04/02 07:33:02;;;;;;;11.67;8.67;;;;;;;5.27;97.28;98027.34;4881586;29;20326;-78
2022/04/02 07:35:43;;;;;;;12.43;8.87;;;;;;;5.37;95.75;98024.13;4885335;29;20239;-79
2022/04/02 07:38:20;;;;;;;13.27;8.83;;;;;;;5.50;96.33;98036.44;4883549;29;20242;-78
2022/04/02 07:40:57;;;;;;;13.07;8.93;;;;;;;5.52;94.34;98037.84;4864643;29;20239;-77
2022/04/02 07:43:47;;;;;;;12.27;8.33;;;;;;;5.38;93.85;98041.69;4877462;29;20246;-77
2022/04/02 07:46:17;;;;;;;13.73;9.50;;;;;;;5.57;94.02;98039.81;4878960;29;20306;-77
2022/04/02 07:48:48;;;;;;;12.53;8.70;;;;;;;5.46;92.91;98043.25;4876119;29;20259;-77
2022/04/02 07:51:21;;;;;;;12.63;8.80;;;;;;;5.68;91.76;98049.69;4862397;29;20238;-77
2022/04/02 07:53:50;;;;;;;10.90;8.93;;;;;;;5.67;92.39;98048.88;4878720;29;20247;-77
2022/04/02 07:56:28;;;;;;;13.53;9.17;;;;;;;6.09;92.12;98049.69;4878318;29;20579;-77
2022/04/02 07:59:42;;;;;;;11.53;8.97;;;;;;;6.17;88.03;98052.00;4880162;29;20254;-77
2022/04/02 08:05:05;;;;;;;11.30;8.40;;;;;;;6.41;83.48;98052.03;4881129;29;20243;-77
2022/04/02 08:07:37;;;;;;;10.07;8.97;;;;;;;6.55;86.63;98058.72;4879045;29;20239;-77
2022/04/02 08:10:06;;;;;;;10.83;9.33;;;;;;;6.46;88.51;98057.47;4880919;29;20266;-76
2022/04/02 08:12:40;;;;;;;10.03;9.03;;;;;;;6.28;86.49;98057.56;4877553;29;20711;-77
2022/04/02 08:15:12;;;;;;;11.80;8.87;;;;;;;5.95;87.45;98066.06;4878601;29;20749;-77
2022/04/02 08:17:44;;;;;;;12.37;8.87;;;;;;;5.80;88.25;98066.47;4875529;29;20243;-77
2022/04/02 08:20:15;;;;;;;10.50;8.73;;;;;;;5.42;91.15;98063.31;4873559;29;20240;-77
2022/04/02 08:22:43;;;;;;;11.83;9.37;;;;;;;5.96;94.09;98065.84;4880590;29;20746;-76
2022/04/02 08:25:10;;;;;;;13.30;9.53;;;;;;;6.25;90.80;98074.81;4880605;29;20270;-77
2022/04/02 08:28:13;;;;;;;14.03;8.70;;;;;;;5.92;89.42;98070.00;4866402;29;20266;-77
2022/04/02 08:30:54;;;;;;;10.90;9.60;;;;;;;6.11;89.03;98066.22;4873746;29;20239;-77
2022/04/02 08:33:33;;;;;;;11.90;9.43;;;;;;;5.61;91.42;98070.19;4880957;29;20239;-77
2022/04/02 08:36:11;;;;;;;10.17;8.83;;;;;;;5.57;88.94;98071.69;4882135;29;20249;-77
2022/04/02 08:38:50;;;;;;;13.63;9.53;;;;;;;5.32;91.52;98083.25;4881721;29;20319;-77
2022/04/02 08:41:51;;;;;;;11.73;9.07;;;;;;;5.16;94.30;98083.03;4881635;29;20250;-77
2022/04/02 08:44:30;;;;;;;10.87;8.67;;;;;;;5.08;95.05;98086.81;4882237;29;20257;-76
2022/04/02 08:47:30;;;;;;;10.10;9.10;;;;;;;5.07;94.16;98095.00;4882736;29;20318;-77
2022/04/02 08:50:13;;;;;;;12.60;8.90;;;;;;;4.99;94.62;98088.16;4856376;29;20255;-76
2022/04/02 08:52:46;;;;;;;12.63;9.17;;;;;;;4.88;95.90;98088.88;4881019;29;20243;-76
2022/04/02 08:55:19;;;;;;;11.17;8.50;;;;;;;4.91;95.54;98099.03;4881513;29;20327;-77
2022/04/02 08:57:51;;;;;;;12.80;8.90;;;;;;;5.04;95.85;98100.75;4875184;29;20240;-77
2022/04/02 09:00:26;;;;;;;11.90;9.53;;;;;;;4.90;95.76;98102.72;4880975;29;20246;-77
2022/04/02 09:02:53;;;;;;;12.40;8.73;;;;;;;5.11;96.22;98101.47;4889386;29;20685;-75
2022/04/02 09:05:22;;;;;;;12.17;9.20;;;;;;;5.38;91.96;98109.94;4881493;29;20314;-77
2022/04/02 09:08:22;;;;;;;11.57;9.23;;;;;;;5.33;92.73;98100.81;4873762;29;20326;-76
2022/04/02 09:11:09;;;;;;;10.40;9.03;;;;;;;5.56;92.49;98096.63;4880020;29;20734;-76
2022/04/02 09:14:11;;;;;;;11.60;8.70;;;;;;;5.30;91.69;98111.88;4881414;29;20242;-77
2022/04/02 09:16:56;;;;;;;10.57;8.27;;;;;;;5.60;88.61;98106.59;4872750;29;20239;-76
2022/04/02 09:19:52;;;;;;;10.10;9.00;;;;;;;6.05;90.09;98106.22;4881639;29;20231;-77
2022/04/02 09:22:43;;;;;;;10.77;9.17;;;;;;;6.54;86.19;98110.31;4877841;29;20253;-77
2022/04/02 09:25:37;;;;;;;13.80;9.70;;;;;;;6.16;84.55;98116.03;4881821;29;21109;-77
2022/04/02 09:28:19;;;;;;;14.03;9.40;;;;;;;6.42;84.39;98110.31;4881929;29;20235;-78
2022/04/02 09:31:18;;;;;;;15.37;12.30;;;;;;;6.70;81.33;98111.50;4880380;29;20291;-77
2022/04/02 09:34:03;;;;;;;12.50;9.23;;;;;;;6.60;78.44;98112.06;4883401;29;20258;-77
2022/04/02 09:36:59;;;;;;;11.87;9.23;;;;;;;6.62;81.78;98112.66;4887978;29;20246;-76
2022/04/02 09:40:04;;;;;;;14.43;10.30;;;;;;;6.59;79.08;98111.25;4886624;29;20323;-77
2022/04/02 09:43:01;;;;;;;13.10;9.63;;;;;;;6.49;81.40;98118.19;4879882;29;20243;-77
2022/04/02 09:45:35;;;;;;;9.80;8.37;;;;;;;6.86;79.82;98116.16;4869751;29;20243;-77
2022/04/02 09:48:18;;;;;;;9.60;8.50;;;;;;;6.85;76.81;98128.63;4874001;29;20687;-77
2022/04/02 09:50:45;;;;;;;10.03;7.80;;;;;;;6.60;75.82;98120.88;4879106;29;20254;-77
2022/04/02 09:53:25;;;;;;;7.80;6.97;;;;;;;6.45;76.81;98117.84;4879306;29;20231;-77
2022/04/02 09:56:01;;;;;;;12.10;8.57;;;;;;;6.49;76.24;98115.53;4880414;29;20263;-77
2022/04/02 09:58:48;;;;;;;10.80;9.70;;;;;;;6.62;76.77;98116.13;4879834;29;20283;-77
2022/04/02 10:01:29;;;;;;;9.33;7.53;;;;;;;6.51;75.96;98108.13;4877039;29;20234;-76
2022/04/02 10:04:18;;;;;;;9.97;8.50;;;;;;;6.52;74.66;98123.06;4880409;29;20291;-76
2022/04/02 10:06:49;;;;;;;9.30;8.23;;;;;;;6.54;75.76;98128.94;4879993;29;20679;-77
2022/04/02 10:09:20;;;;;;;14.00;10.37;;;;;;;6.23;76.66;98131.91;4879638;29;20239;-76
2022/04/02 10:11:54;;;;;;;27.73;16.60;;;;;;;6.18;77.66;98132.59;4880225;29;20313;-77
2022/04/02 10:14:25;;;;;;;12.83;9.53;;;;;;;6.10;76.83;98139.06;4878037;29;20246;-77
2022/04/02 10:16:57;;;;;;;9.93;7.37;;;;;;;5.89;76.94;98131.56;4878735;29;20278;-77
2022/04/02 10:19:32;;;;;;;10.87;7.90;;;;;;;5.51;77.34;98146.97;4879554;29;20235;-76
2022/04/02 10:22:02;;;;;;;14.87;10.30;;;;;;;5.29;81.25;98139.47;4879858;29;20241;-76
2022/04/02 10:24:35;;;;;;;9.50;7.83;;;;;;;5.38;79.70;98141.81;4875453;29;20246;-76
2022/04/02 10:27:02;;;;;;;11.00;7.80;;;;;;;5.68;79.47;98148.81;4879735;29;20239;-76
2022/04/02 10:29:42;;;;;;;11.30;8.53;;;;;;;5.82;79.04;98146.78;4879328;29;20615;-76
2022/04/02 10:32:24;;;;;;;12.93;8.17;;;;;;;5.77;77.55;98146.66;4877865;29;20318;-76
2022/04/02 10:34:54;;;;;;;16.50;11.83;;;;;;;5.63;79.71;98159.28;4879418;29;20239;-76
2022/04/02 10:37:21;;;;;;;21.63;14.57;;;;;;;5.98;78.85;98151.50;4875437;29;20239;-77
2022/04/02 10:40:11;;;;;;;13.53;9.10;;;;;;;6.03;80.48;98161.44;4878222;29;20680;-76
2022/04/02 10:42:41;;;;;;;14.73;10.27;;;;;;;6.34;77.35;98149.75;4878738;29;20251;-76
2022/04/02 10:45:10;;;;;;;14.90;10.63;;;;;;;6.64;75.37;98151.31;4881496;29;20318;-76
2022/04/02 10:48:16;;;;;;;12.07;9.43;;;;;;;6.57;74.75;98153.28;4877333;29;20231;-76
2022/04/02 10:50:44;;;;;;;12.07;9.33;;;;;;;6.64;76.46;98155.81;4870809;29;20231;-76
2022/04/02 10:53:12;;;;;;;9.37;8.37;;;;;;;6.83;74.44;98156.53;4879375;29;20600;-77
2022/04/02 10:55:46;;;;;;;12.37;8.63;;;;;;;6.99;73.08;98154.00;4879091;29;20282;-77
2022/04/02 10:58:13;;;;;;;11.70;8.77;;;;;;;7.08;74.03;98157.09;4878909;29;20227;-77
2022/04/02 11:00:47;;;;;;;12.83;8.80;;;;;;;6.69;75.12;98157.78;4879008;29;20562;-76
2022/04/02 11:03:29;;;;;;;14.63;8.63;;;;;;;6.68;73.98;98156.97;4883099;29;20242;-76
2022/04/02 11:05:57;;;;;;;11.83;8.73;;;;;;;6.99;73.48;98158.50;4879222;29;20239;-76
2022/04/02 11:08:29;;;;;;;12.17;8.50;;;;;;;6.76;73.19;98159.31;4882699;29;20295;-76
2022/04/02 11:10:58;;;;;;;12.57;8.67;;;;;;;7.07;72.47;98164.28;4875247;29;20267;-76
2022/04/02 11:13:30;;;;;;;13.90;8.77;;;;;;;6.90;71.51;98166.03;4875295;29;20239;-77
2022/04/02 11:15:57;;;;;;;11.10;8.77;;;;;;;6.75;74.75;98170.19;4879145;29;20231;-76
2022/04/02 11:18:24;;;;;;;11.13;8.43;;;;;;;6.78;75.21;98173.19;4878481;29;20252;-76
2022/04/02 11:21:01;;;;;;;11.90;8.73;;;;;;;6.73;74.74;98166.91;4879271;29;20298;-76
2022/04/02 11:23:55;;;;;;;10.93;8.63;;;;;;;6.48;75.52;98185.75;4881986;29;20231;-77
2022/04/02 11:26:22;;;;;;;10.90;8.70;;;;;;;6.45;75.65;98180.88;4877317;29;20267;-76
2022/04/02 11:28:52;;;;;;;13.93;8.90;;;;;;;6.51;75.90;98177.31;4877426;29;20255;-76
2022/04/02 11:31:27;;;;;;;10.30;7.87;;;;;;;6.12;75.41;98189.34;4882443;29;20255;-76
2022/04/02 11:33:54;;;;;;;11.10;8.53;;;;;;;6.13;78.24;98178.47;4878607;29;20270;-76
2022/04/02 11:36:23;;;;;;;11.13;8.03;;;;;;;6.31;75.84;98182.94;4878033;29;20239;-77
2022/04/02 11:39:02;;;;;;;12.83;8.67;;;;;;;6.68;75.00;98188.09;4878713;29;20291;-76
2022/04/02 11:41:38;;;;;;;13.97;8.50;;;;;;;6.45;74.69;98181.69;4877171;29;20673;-76
2022/04/02 11:44:14;;;;;;;13.33;8.27;;;;;;;6.31;76.59;98198.06;4876690;29;20274;-76
2022/04/02 11:47:02;;;;;;;11.67;8.63;;;;;;;6.31;75.78;98193.56;4878542;29;20250;-76
2022/04/02 11:49:34;;;;;;;9.80;7.67;;;;;;;6.61;74.81;98188.22;4875706;29;20287;-77
2022/04/02 11:52:04;;;;;;;13.33;8.63;;;;;;;6.83;73.95;98193.78;4878165;29;20238;-75
2022/04/02 11:54:31;;;;;;;11.73;8.13;;;;;;;7.00;72.45;98192.06;4878672;29;20701;-76